Terminal Aerodrome Forecast
Issued by NWS Atlanta, GA

Home | Current Version | Previous Version | Text Only | Print | Product List | Glossary On
Versions: 1 2 3 4 5 6 7 8 9 10 11 12 13 14 15 16 17 18 19 20 21 22
919
FTUS42 KFFC 282321
TAFMCN
TAF
KMCN 282321Z 2900/2924 24006KT P6SM VCSH SCT045
     FM290200 00000KT P6SM FEW250
     FM291000 00000KT 2SM BR FEW250
     FM291400 VRB03KT P6SM FEW250
     FM291600 VRB03KT P6SM SCT050=

USA.gov is the U.S. government's official web portal to all federal, state and local government web resources and services.